Terminal Aerodrome Forecast
Issued by NWS

Home | Current Version | Previous Version | Text Only | Print | Product List | Glossary On
Versions: 1 2 3 4 5 6 7 8 9 10 11 12 13 14
000
FTUS42 KMLB 250536
TAFSUA
TAF
KSUA 250536Z 2506/2606 15005KT P6SM SKC
     FM251400 17007KT P6SM SCT030
     FM251700 12011KT P6SM SCT035
     FM260000 14007KT P6SM FEW040=

USA.gov is the U.S. government's official web portal to all federal, state and local government web resources and services.